createdAt,value
2019-01-23T00:00:40.434Z,63.40
2019-01-23T00:01:47.509Z,67.17
2019-01-23T00:02:51.805Z,65.22
2019-01-23T00:03:56.164Z,67.10
2019-01-23T00:05:00.426Z,68.30
2019-01-23T00:06:04.954Z,67.08
2019-01-23T00:07:09.400Z,70.03
2019-01-23T00:08:13.666Z,73.78
2019-01-23T00:09:17.941Z,67.87
2019-01-23T00:10:22.297Z,68.97
2019-01-23T00:11:26.569Z,71.40
2019-01-23T00:12:30.861Z,67.27
2019-01-23T00:13:35.130Z,70.45
2019-01-23T00:14:39.401Z,67.60
2019-01-23T00:15:43.742Z,73.17
2019-01-23T00:16:48.082Z,69.20
2019-01-23T00:17:52.366Z,72.65
2019-01-23T00:18:56.630Z,74.70
2019-01-23T00:20:00.907Z,72.72
2019-01-23T00:21:05.245Z,71.95
2019-01-23T00:22:09.674Z,66.67
2019-01-23T00:23:13.955Z,71.85
2019-01-23T00:24:18.282Z,79.27
2019-01-23T00:25:22.650Z,69.12
2019-01-23T00:26:26.941Z,73.87
2019-01-23T00:27:31.222Z,70.45
2019-01-23T00:28:35.485Z,70.60
2019-01-23T00:29:39.763Z,77.75
2019-01-23T00:30:44.042Z,74.47
2019-01-23T00:31:48.338Z,72.03
2019-01-23T00:32:52.632Z,69.60
2019-01-23T00:33:56.907Z,67.15
2019-01-23T00:35:01.190Z,76.47
2019-01-23T00:36:05.577Z,73.02
2019-01-23T00:37:09.894Z,71.90
2019-01-23T00:38:14.174Z,80.97
2019-01-23T00:39:18.558Z,71.67
2019-01-23T00:40:22.902Z,75.15
2019-01-23T00:41:27.170Z,74.60
2019-01-23T00:42:31.591Z,79.10
2019-01-23T00:43:35.871Z,70.97
2019-01-23T00:44:40.137Z,74.50
2019-01-23T00:45:44.479Z,74.55
2019-01-23T00:46:48.831Z,80.75
2019-01-23T00:47:53.107Z,74.87
2019-01-23T00:48:57.371Z,79.12
2019-01-23T00:50:01.655Z,73.60
2019-01-23T00:51:05.961Z,80.67
2019-01-23T00:52:10.247Z,83.27
2019-01-23T00:53:14.527Z,79.65
2019-01-23T00:54:18.891Z,77.40
2019-01-23T00:55:23.176Z,82.25
2019-01-23T00:56:27.438Z,88.40
2019-01-23T00:57:31.728Z,82.65
2019-01-23T00:58:35.998Z,84.05
2019-01-23T00:59:40.522Z,82.62
2019-01-23T01:00:44.794Z,85.15
2019-01-23T01:01:49.142Z,76.50
2019-01-23T01:02:53.764Z,82.85
2019-01-23T01:03:58.046Z,78.78
2019-01-23T01:05:02.382Z,81.90
2019-01-23T01:06:06.730Z,82.70
2019-01-23T01:07:11.099Z,86.95
2019-01-23T01:08:15.366Z,84.05
2019-01-23T01:09:19.722Z,83.95
2019-01-23T01:10:24.066Z,96.17
2019-01-23T01:11:28.346Z,91.10
2019-01-23T01:12:32.610Z,85.30
2019-01-23T01:13:36.934Z,86.37
2019-01-23T01:14:41.221Z,87.05
2019-01-23T01:15:45.634Z,85.35
2019-01-23T01:16:50.055Z,90.65
2019-01-23T01:17:54.419Z,87.80
2019-01-23T01:18:58.777Z,93.33
2019-01-23T01:20:03.636Z,89.58
2019-01-23T01:21:07.978Z,92.00
2019-01-23T01:22:12.337Z,84.45
2019-01-23T01:23:16.595Z,87.05
2019-01-23T01:24:20.875Z,99.17
2019-01-23T01:25:25.226Z,87.85
2019-01-23T01:26:29.505Z,95.07
2019-01-23T01:27:33.793Z,103.80
2019-01-23T01:28:38.109Z,86.08
2019-01-23T01:29:42.386Z,98.82
2019-01-23T01:30:46.655Z,90.47
2019-01-23T01:31:50.942Z,90.83
2019-01-23T01:32:55.206Z,90.45
2019-01-23T01:33:59.474Z,97.42
2019-01-23T01:35:04.246Z,97.50
2019-01-23T01:36:08.517Z,96.20
2019-01-23T01:37:12.795Z,96.72
2019-01-23T01:38:17.059Z,93.87
2019-01-23T01:39:21.402Z,96.75
2019-01-23T01:40:25.749Z,99.22
2019-01-23T01:41:30.029Z,97.10
2019-01-23T01:42:34.294Z,91.45
2019-01-23T01:43:38.562Z,93.07
2019-01-23T01:44:42.830Z,89.65
2019-01-23T01:45:47.102Z,95.07
2019-01-23T01:46:51.377Z,106.75
2019-01-23T01:47:55.738Z,96.67
2019-01-23T01:48:59.998Z,102.82
2019-01-23T01:50:06.545Z,97.78
2019-01-23T01:51:10.879Z,93.90
2019-01-23T01:52:15.241Z,98.07
2019-01-23T01:53:19.509Z,93.97
2019-01-23T01:54:23.771Z,98.50
2019-01-23T01:55:28.047Z,101.25
2019-01-23T01:56:32.332Z,107.10
2019-01-23T01:57:36.674Z,100.82
2019-01-23T01:58:40.942Z,97.20
2019-01-23T01:59:45.222Z,100.22
2019-01-23T02:00:49.491Z,94.70
2019-01-23T02:01:53.754Z,106.03
2019-01-23T02:02:58.086Z,102.40
2019-01-23T02:04:02.370Z,102.47
2019-01-23T02:05:07.318Z,103.40
2019-01-23T02:06:11.738Z,97.10
2019-01-23T02:07:16.029Z,108.05
2019-01-23T02:08:20.294Z,98.70
2019-01-23T02:09:24.562Z,104.20
2019-01-23T02:10:28.963Z,104.07
2019-01-23T02:11:33.298Z,99.37
2019-01-23T02:12:37.562Z,101.62
2019-01-23T02:13:41.854Z,101.95
2019-01-23T02:14:46.129Z,96.90
2019-01-23T02:15:50.429Z,102.87
2019-01-23T02:16:54.697Z,103.62
2019-01-23T02:17:58.978Z,101.42
2019-01-23T02:19:03.335Z,106.92
2019-01-23T02:20:11.000Z,102.07
2019-01-23T02:21:15.274Z,103.22
2019-01-23T02:22:19.535Z,102.15
2019-01-23T02:23:23.793Z,96.05
2019-01-23T02:24:28.061Z,104.65
2019-01-23T02:25:32.565Z,98.60
2019-01-23T02:26:36.849Z,100.33
2019-01-23T02:27:41.866Z,100.07
2019-01-23T02:28:46.139Z,106.92
2019-01-23T02:29:50.405Z,107.17
2019-01-23T02:30:54.688Z,96.45
2019-01-23T02:31:58.970Z,104.17
2019-01-23T02:33:03.266Z,104.83
2019-01-23T02:34:07.511Z,101.72
2019-01-23T02:35:11.934Z,107.60
2019-01-23T02:36:16.230Z,99.20
2019-01-23T02:37:20.535Z,103.45
2019-01-23T02:38:24.805Z,105.15
2019-01-23T02:39:29.070Z,108.15
2019-01-23T02:40:33.346Z,104.03
2019-01-23T02:41:37.689Z,108.45
2019-01-23T02:42:42.030Z,102.38
2019-01-23T02:43:46.289Z,102.85
2019-01-23T02:44:50.567Z,102.75
2019-01-23T02:45:54.843Z,112.08
2019-01-23T02:46:59.134Z,102.92
2019-01-23T02:48:03.699Z,100.82
2019-01-23T02:49:08.065Z,105.00
2019-01-23T02:50:12.662Z,107.07
2019-01-23T02:51:16.941Z,99.60
2019-01-23T02:52:21.298Z,104.67
2019-01-23T02:53:25.594Z,105.07
2019-01-23T02:54:29.878Z,117.53
2019-01-23T02:55:34.217Z,106.47
2019-01-23T02:56:38.501Z,109.83
2019-01-23T02:57:42.854Z,109.03
2019-01-23T02:58:47.122Z,108.70
2019-01-23T02:59:51.486Z,111.30
2019-01-23T03:00:55.746Z,110.05
2019-01-23T03:02:00.036Z,117.00
2019-01-23T03:03:04.460Z,116.45
2019-01-23T03:04:08.738Z,108.65
2019-01-23T03:05:15.251Z,116.17
2019-01-23T03:06:19.601Z,113.80
2019-01-23T03:07:23.879Z,106.25
2019-01-23T03:08:28.173Z,110.72
2019-01-23T03:09:32.450Z,105.07
2019-01-23T03:10:36.730Z,108.37
2019-01-23T03:11:41.063Z,113.22
2019-01-23T03:12:45.376Z,108.57
2019-01-23T03:13:49.638Z,109.60
2019-01-23T03:14:53.999Z,105.12
2019-01-23T03:15:58.274Z,108.90
2019-01-23T03:17:02.535Z,117.40
2019-01-23T03:18:06.890Z,110.75
2019-01-23T03:19:11.238Z,110.50
2019-01-23T03:20:17.523Z,115.90
2019-01-23T03:21:22.467Z,120.05
2019-01-23T03:22:26.736Z,115.22
2019-01-23T03:23:31.021Z,111.50
2019-01-23T03:24:35.293Z,112.95
2019-01-23T03:25:39.578Z,115.00
2019-01-23T03:26:43.834Z,111.42
2019-01-23T03:27:48.181Z,116.22
2019-01-23T03:28:52.453Z,116.37
2019-01-23T03:29:56.751Z,115.92
2019-01-23T03:31:01.091Z,116.50
2019-01-23T03:32:05.520Z,118.85
2019-01-23T03:33:09.795Z,108.52
2019-01-23T03:34:14.070Z,115.03
2019-01-23T03:35:18.625Z,108.70
2019-01-23T03:36:22.898Z,114.28
2019-01-23T03:37:27.194Z,114.45
2019-01-23T03:38:31.474Z,112.35
2019-01-23T03:39:35.746Z,113.47
2019-01-23T03:40:40.021Z,118.50
2019-01-23T03:41:44.289Z,120.13
2019-01-23T03:42:48.650Z,118.53
2019-01-23T03:43:52.930Z,120.75
2019-01-23T03:44:57.201Z,122.70
2019-01-23T03:46:01.486Z,117.75
2019-01-23T03:47:05.752Z,129.45
2019-01-23T03:48:10.014Z,123.28
2019-01-23T03:49:14.322Z,121.40
2019-01-23T03:50:19.546Z,117.30
2019-01-23T03:51:23.814Z,125.38
2019-01-23T03:52:28.100Z,124.62
2019-01-23T03:53:32.397Z,119.93
2019-01-23T03:54:36.666Z,124.18
2019-01-23T03:55:41.082Z,122.72
2019-01-23T03:56:45.430Z,115.22
2019-01-23T03:57:49.770Z,118.70
2019-01-23T03:58:54.193Z,120.97
2019-01-23T03:59:58.820Z,127.20
2019-01-23T04:01:03.158Z,131.52
2019-01-23T04:02:07.450Z,117.80
2019-01-23T04:03:11.870Z,126.22
2019-01-23T04:04:16.207Z,124.95
2019-01-23T04:05:20.687Z,123.80
2019-01-23T04:06:24.949Z,125.60
2019-01-23T04:07:29.297Z,125.30
2019-01-23T04:08:33.582Z,127.85
2019-01-23T04:09:37.870Z,120.45
2019-01-23T04:10:42.154Z,119.95
2019-01-23T04:11:46.441Z,127.17
2019-01-23T04:12:51.195Z,121.60
2019-01-23T04:13:55.466Z,123.13
2019-01-23T04:14:59.738Z,121.47
2019-01-23T04:16:04.186Z,132.57
2019-01-23T04:17:08.460Z,119.95
2019-01-23T04:18:12.726Z,128.32
2019-01-23T04:19:17.011Z,123.87
2019-01-23T04:20:22.609Z,127.97
2019-01-23T04:21:26.880Z,123.40
2019-01-23T04:22:31.547Z,123.42
2019-01-23T04:23:35.851Z,133.60
2019-01-23T04:24:40.126Z,128.60
2019-01-23T04:25:47.562Z,121.02
2019-01-23T04:26:51.838Z,126.72
2019-01-23T04:27:56.107Z,125.27
2019-01-23T04:29:00.388Z,125.72
2019-01-23T04:30:06.483Z,130.32
2019-01-23T04:31:10.763Z,120.55
2019-01-23T04:32:15.025Z,135.15
2019-01-23T04:33:19.294Z,121.82
2019-01-23T04:34:23.574Z,126.65
2019-01-23T04:35:27.865Z,133.87
2019-01-23T04:36:32.138Z,134.25
2019-01-23T04:37:36.439Z,128.40
2019-01-23T04:38:40.714Z,119.47
2019-01-23T04:39:44.994Z,123.78
2019-01-23T04:40:49.272Z,129.72
2019-01-23T04:41:53.537Z,133.45
2019-01-23T04:42:57.813Z,121.33
2019-01-23T04:44:02.102Z,125.62
2019-01-23T04:45:08.186Z,127.60
2019-01-23T04:46:12.537Z,128.62
2019-01-23T04:47:16.845Z,126.97
2019-01-23T04:48:21.189Z,126.38
2019-01-23T04:49:25.500Z,122.92
2019-01-23T04:50:29.953Z,127.82
2019-01-23T04:51:44.821Z,120.53
2019-01-23T04:53:06.511Z,122.95
2019-01-23T04:54:14.528Z,127.20
2019-01-23T04:55:18.828Z,121.57
2019-01-23T04:56:23.106Z,122.22
2019-01-23T04:57:27.406Z,131.87
2019-01-23T04:58:31.679Z,125.97
2019-01-23T04:59:35.955Z,125.65
2019-01-23T05:00:40.242Z,130.95
2019-01-23T05:01:44.662Z,125.22
2019-01-23T05:02:50.420Z,129.07
2019-01-23T05:03:54.974Z,127.87
2019-01-23T05:04:59.254Z,128.02
2019-01-23T05:06:03.883Z,131.72
2019-01-23T05:07:08.151Z,130.43
2019-01-23T05:08:12.426Z,121.70
2019-01-23T05:09:16.697Z,126.53
2019-01-23T05:10:21.096Z,124.30
2019-01-23T05:11:25.434Z,126.53
2019-01-23T05:12:29.809Z,120.77
2019-01-23T05:13:34.074Z,127.12
2019-01-23T05:14:38.435Z,123.30
2019-01-23T05:15:42.726Z,122.20
2019-01-23T05:16:47.002Z,119.02
2019-01-23T05:17:51.349Z,122.47
2019-01-23T05:18:55.634Z,126.35
2019-01-23T05:19:59.891Z,115.65
2019-01-23T05:21:04.334Z,123.40
2019-01-23T05:22:08.614Z,123.87
2019-01-23T05:23:12.894Z,132.47
2019-01-23T05:24:17.238Z,126.40
2019-01-23T05:25:21.503Z,125.53
2019-01-23T05:26:25.783Z,122.90
2019-01-23T05:27:30.042Z,128.47
2019-01-23T05:28:34.319Z,124.53
2019-01-23T05:29:38.658Z,126.78
2019-01-23T05:30:42.938Z,123.80
2019-01-23T05:31:47.243Z,130.82
2019-01-23T05:32:51.521Z,125.50
2019-01-23T05:33:55.794Z,126.62
2019-01-23T05:35:00.091Z,119.05
2019-01-23T05:36:04.702Z,126.65
2019-01-23T05:37:09.041Z,129.40
2019-01-23T05:38:13.336Z,130.72
2019-01-23T05:39:17.602Z,124.70
2019-01-23T05:40:22.041Z,127.15
2019-01-23T05:41:26.339Z,116.35
2019-01-23T05:42:30.610Z,127.65
2019-01-23T05:43:34.886Z,117.72
2019-01-23T05:44:39.310Z,123.10
2019-01-23T05:45:43.573Z,120.50
2019-01-23T05:46:47.862Z,127.55
2019-01-23T05:47:52.184Z,120.53
2019-01-23T05:48:56.489Z,120.08
2019-01-23T05:50:01.001Z,123.20
2019-01-23T05:51:05.362Z,112.50
2019-01-23T05:52:09.716Z,114.95
2019-01-23T05:53:13.985Z,109.75
2019-01-23T05:54:18.262Z,117.60
2019-01-23T05:55:22.537Z,114.60
2019-01-23T05:56:26.886Z,122.22
2019-01-23T05:57:31.190Z,118.00
2019-01-23T05:58:35.497Z,121.87
2019-01-23T05:59:41.642Z,116.62
2019-01-23T06:00:45.931Z,120.80
2019-01-23T06:01:50.210Z,118.40
2019-01-23T06:02:54.554Z,118.13
2019-01-23T06:03:58.872Z,125.78
2019-01-23T06:05:03.209Z,119.17
2019-01-23T06:06:07.626Z,116.75
2019-01-23T06:07:11.908Z,121.25
2019-01-23T06:08:16.168Z,122.50
2019-01-23T06:09:20.437Z,120.97
2019-01-23T06:10:24.722Z,120.20
2019-01-23T06:11:29.056Z,122.50
2019-01-23T06:12:33.335Z,124.72
2019-01-23T06:13:37.669Z,120.72
2019-01-23T06:14:41.994Z,122.40
2019-01-23T06:15:46.267Z,121.53
2019-01-23T06:16:50.538Z,112.95
2019-01-23T06:17:54.874Z,118.85
2019-01-23T06:18:59.330Z,122.22
2019-01-23T06:20:04.702Z,126.33
2019-01-23T06:21:10.982Z,119.62
2019-01-23T06:22:15.257Z,129.32
2019-01-23T06:23:19.746Z,118.22
2019-01-23T06:24:24.006Z,117.80
2019-01-23T06:25:28.284Z,119.90
2019-01-23T06:26:32.542Z,128.07
2019-01-23T06:27:36.834Z,124.35
2019-01-23T06:28:41.211Z,124.82
2019-01-23T06:29:46.170Z,126.35
2019-01-23T06:30:50.442Z,123.38
2019-01-23T06:31:54.751Z,120.08
2019-01-23T06:32:59.071Z,118.62
2019-01-23T06:34:03.342Z,114.42
2019-01-23T06:35:07.774Z,119.75
2019-01-23T06:36:12.050Z,126.40
2019-01-23T06:37:16.330Z,124.30
2019-01-23T06:38:20.622Z,121.62
2019-01-23T06:39:24.899Z,118.95
2019-01-23T06:40:29.174Z,121.45
2019-01-23T06:41:33.527Z,120.62
2019-01-23T06:42:37.881Z,123.07
2019-01-23T06:43:42.242Z,119.05
2019-01-23T06:44:46.522Z,121.35
2019-01-23T06:45:50.817Z,116.65
2019-01-23T06:46:55.131Z,121.97
2019-01-23T06:47:59.391Z,113.72
2019-01-23T06:49:03.773Z,123.05
2019-01-23T06:50:10.981Z,121.55
2019-01-23T06:51:15.258Z,117.00
2019-01-23T06:52:19.541Z,120.25
2019-01-23T06:53:23.909Z,116.73
2019-01-23T06:54:28.191Z,118.02
2019-01-23T06:55:32.809Z,121.02
2019-01-23T06:56:37.074Z,123.53
2019-01-23T06:57:41.434Z,124.12
2019-01-23T06:58:45.715Z,124.20
2019-01-23T06:59:49.982Z,125.65
2019-01-23T07:00:54.299Z,117.45
2019-01-23T07:01:58.702Z,115.40
2019-01-23T07:03:03.049Z,127.78
2019-01-23T07:04:07.334Z,120.13
2019-01-23T07:05:11.938Z,121.40
2019-01-23T07:06:16.202Z,113.97
2019-01-23T07:07:20.469Z,118.95
2019-01-23T07:08:24.751Z,128.05
2019-01-23T07:09:29.038Z,128.27
2019-01-23T07:10:33.489Z,122.17
2019-01-23T07:11:37.810Z,123.87
2019-01-23T07:12:42.074Z,121.65
2019-01-23T07:13:46.370Z,113.83
2019-01-23T07:14:50.649Z,115.52
2019-01-23T07:15:54.918Z,116.17
2019-01-23T07:16:59.194Z,111.52
2019-01-23T07:18:03.471Z,116.70
2019-01-23T07:19:07.758Z,118.17
2019-01-23T07:20:15.115Z,118.57
2019-01-23T07:21:19.378Z,118.70
2019-01-23T07:22:23.663Z,121.45
2019-01-23T07:23:27.956Z,116.05
2019-01-23T07:24:32.324Z,117.53
2019-01-23T07:25:36.646Z,115.80
2019-01-23T07:26:40.918Z,115.65
2019-01-23T07:27:45.210Z,116.88
2019-01-23T07:28:49.527Z,108.60
2019-01-23T07:29:53.818Z,122.10
2019-01-23T07:30:58.089Z,116.50
2019-01-23T07:32:02.510Z,113.97
2019-01-23T07:33:06.858Z,110.80
2019-01-23T07:34:11.141Z,117.93
2019-01-23T07:35:15.972Z,109.55
2019-01-23T07:36:20.234Z,116.40
2019-01-23T07:37:24.591Z,112.68
2019-01-23T07:38:28.868Z,117.00
2019-01-23T07:39:33.145Z,105.40
2019-01-23T07:40:37.442Z,110.03
2019-01-23T07:41:41.729Z,110.78
2019-01-23T07:42:46.008Z,110.15
2019-01-23T07:43:50.273Z,111.35
2019-01-23T07:44:54.550Z,105.83
2019-01-23T07:45:58.839Z,107.25
2019-01-23T07:47:03.113Z,99.55
2019-01-23T07:48:07.538Z,112.40
2019-01-23T07:49:11.816Z,107.15
2019-01-23T07:50:16.502Z,112.03
2019-01-23T07:51:20.779Z,103.87
2019-01-23T07:52:25.061Z,101.62
2019-01-23T07:53:29.586Z,107.30
2019-01-23T07:54:33.853Z,120.92
2019-01-23T07:55:38.173Z,122.30
2019-01-23T07:56:42.445Z,124.15
2019-01-23T07:57:46.710Z,111.05
2019-01-23T07:58:51.054Z,100.25
2019-01-23T07:59:55.320Z,102.58
2019-01-23T08:00:59.606Z,101.78
2019-01-23T08:02:03.948Z,103.90
2019-01-23T08:03:08.210Z,102.70
2019-01-23T08:04:12.482Z,94.52
2019-01-23T08:05:19.643Z,97.75
2019-01-23T08:06:24.067Z,99.13
2019-01-23T08:07:28.342Z,100.70
2019-01-23T08:08:32.605Z,98.15
2019-01-23T08:09:37.617Z,99.15
2019-01-23T08:10:42.651Z,95.12
2019-01-23T08:11:46.920Z,96.72
2019-01-23T08:12:51.374Z,93.05
2019-01-23T08:13:55.729Z,100.92
2019-01-23T08:15:00.031Z,97.88
2019-01-23T08:16:04.478Z,97.12
2019-01-23T08:17:08.757Z,97.78
2019-01-23T08:18:13.091Z,96.08
2019-01-23T08:19:17.598Z,93.67
2019-01-23T08:20:22.320Z,98.33
2019-01-23T08:21:26.603Z,91.78
2019-01-23T08:22:30.870Z,91.65
2019-01-23T08:23:35.138Z,91.30
2019-01-23T08:24:39.405Z,96.40
2019-01-23T08:25:43.972Z,92.45
2019-01-23T08:26:48.310Z,89.62
2019-01-23T08:27:52.738Z,87.82
2019-01-23T08:28:57.021Z,87.70
2019-01-23T08:30:01.310Z,88.03
2019-01-23T08:31:05.675Z,96.17
2019-01-23T08:32:10.115Z,96.05
2019-01-23T08:33:14.400Z,101.00
2019-01-23T08:34:18.675Z,86.45
2019-01-23T08:35:23.418Z,89.87
2019-01-23T08:36:27.710Z,89.20
2019-01-23T08:37:31.996Z,86.17
2019-01-23T08:38:36.382Z,84.35
2019-01-23T08:39:40.658Z,86.08
2019-01-23T08:40:44.934Z,87.00
2019-01-23T08:41:49.225Z,87.82
2019-01-23T08:42:53.577Z,84.72
2019-01-23T08:43:57.867Z,80.42
2019-01-23T08:45:02.149Z,83.80
2019-01-23T08:46:06.499Z,86.45
2019-01-23T08:47:10.798Z,80.87
2019-01-23T08:48:15.154Z,80.03
2019-01-23T08:49:19.506Z,86.75
2019-01-23T08:50:26.650Z,83.80
2019-01-23T08:51:31.013Z,83.42
2019-01-23T08:52:35.386Z,80.07
2019-01-23T08:53:39.686Z,84.75
2019-01-23T08:54:43.963Z,82.27
2019-01-23T08:55:53.567Z,80.20
2019-01-23T08:56:54.583Z,82.12
2019-01-23T08:57:58.877Z,75.72
2019-01-23T08:59:03.162Z,81.63
2019-01-23T09:00:07.907Z,76.90
2019-01-23T09:01:12.186Z,79.55
2019-01-23T09:02:16.633Z,76.57
2019-01-23T09:03:20.989Z,76.47
2019-01-23T09:04:25.350Z,73.45
2019-01-23T09:05:29.780Z,79.00
2019-01-23T09:06:34.054Z,78.83
2019-01-23T09:07:38.423Z,75.15
2019-01-23T09:08:42.781Z,77.17
2019-01-23T09:09:47.066Z,77.80
2019-01-23T09:10:51.354Z,81.42
2019-01-23T09:11:55.710Z,80.45
2019-01-23T09:13:00.007Z,83.27
2019-01-23T09:14:04.536Z,80.40
2019-01-23T09:15:10.065Z,81.02
2019-01-23T09:16:14.489Z,76.80
2019-01-23T09:17:18.882Z,83.10
2019-01-23T09:18:23.171Z,80.53
2019-01-23T09:19:27.449Z,78.83
2019-01-23T09:20:31.805Z,78.70
2019-01-23T09:21:36.087Z,85.42
2019-01-23T09:22:40.366Z,88.67
2019-01-23T09:23:44.651Z,82.90
2019-01-23T09:24:48.934Z,84.07
2019-01-23T09:25:53.222Z,84.52
2019-01-23T09:26:57.569Z,91.28
2019-01-23T09:28:01.872Z,83.52
2019-01-23T09:29:06.222Z,79.10
2019-01-23T09:30:14.417Z,80.75
2019-01-23T09:31:43.853Z,83.85
2019-01-23T09:33:23.920Z,80.53
2019-01-23T09:35:05.291Z,87.55
2019-01-23T09:36:49.222Z,76.82
2019-01-23T09:38:19.862Z,78.87
2019-01-23T09:39:59.721Z,81.28
2019-01-23T09:41:22.002Z,84.97
2019-01-23T09:43:19.566Z,78.10
2019-01-23T09:44:35.545Z,85.25
2019-01-23T09:46:23.131Z,84.58
2019-01-23T09:47:39.562Z,84.15
2019-01-23T09:49:21.362Z,87.92
2019-01-23T09:51:05.351Z,91.75
2019-01-23T09:52:41.265Z,89.10
2019-01-23T09:53:58.103Z,87.92
2019-01-23T09:55:02.491Z,93.80
2019-01-23T09:56:06.882Z,88.80
2019-01-23T09:57:11.167Z,92.75
2019-01-23T09:58:15.465Z,89.03
2019-01-23T09:59:19.751Z,88.42
2019-01-23T10:00:26.750Z,92.33
2019-01-23T10:01:31.030Z,88.67
2019-01-23T10:02:35.321Z,84.28
2019-01-23T10:03:39.594Z,89.35
2019-01-23T10:04:43.897Z,85.55
2019-01-23T10:05:48.182Z,90.12
2019-01-23T10:06:52.484Z,86.15
2019-01-23T10:07:56.766Z,87.88
2019-01-23T10:09:01.137Z,90.72
2019-01-23T10:10:06.869Z,87.10
2019-01-23T10:11:11.154Z,88.05
2019-01-23T10:12:15.688Z,98.30
2019-01-23T10:13:20.098Z,84.95
2019-01-23T10:14:24.376Z,86.37
2019-01-23T10:15:46.989Z,96.78
2019-01-23T10:16:51.241Z,87.30
2019-01-23T10:17:55.515Z,85.53
2019-01-23T10:18:59.791Z,90.17
2019-01-23T10:20:04.444Z,90.83
2019-01-23T10:21:08.693Z,88.82
2019-01-23T10:22:13.039Z,85.70
2019-01-23T10:23:17.325Z,84.95
2019-01-23T10:24:21.598Z,90.53
2019-01-23T10:25:25.858Z,85.38
2019-01-23T10:26:30.187Z,93.25
2019-01-23T10:27:35.209Z,86.37
2019-01-23T10:28:39.465Z,85.95
2019-01-23T10:29:43.758Z,85.50
2019-01-23T10:30:48.028Z,90.92
2019-01-23T10:31:52.328Z,91.40
2019-01-23T10:32:56.661Z,89.77
2019-01-23T10:34:00.926Z,90.67
2019-01-23T10:35:07.053Z,93.55
2019-01-23T10:36:11.466Z,82.05
2019-01-23T10:37:19.494Z,79.53
2019-01-23T10:38:21.707Z,86.02
2019-01-23T10:39:26.057Z,83.52
2019-01-23T10:40:30.331Z,86.75
2019-01-23T10:41:34.685Z,88.35
2019-01-23T10:42:38.945Z,84.67
2019-01-23T10:43:43.283Z,86.55
2019-01-23T10:44:47.578Z,96.25
2019-01-23T10:45:51.849Z,92.95
2019-01-23T10:46:56.114Z,94.25
2019-01-23T10:48:00.462Z,94.65
2019-01-23T10:49:06.162Z,89.95
2019-01-23T10:50:12.242Z,88.75
2019-01-23T10:51:16.507Z,92.45
2019-01-23T10:52:20.850Z,89.37
2019-01-23T10:53:25.214Z,89.17
2019-01-23T10:54:29.497Z,91.60
2019-01-23T10:55:33.850Z,85.53
2019-01-23T10:56:38.198Z,85.35
2019-01-23T10:57:42.717Z,92.20
2019-01-23T10:58:46.983Z,85.62
2019-01-23T10:59:51.249Z,89.00
2019-01-23T11:00:55.542Z,94.62
2019-01-23T11:01:59.950Z,90.32
2019-01-23T11:03:10.012Z,89.25
2019-01-23T11:04:10.536Z,82.17
2019-01-23T11:05:17.623Z,91.30
2019-01-23T11:06:21.979Z,88.05
2019-01-23T11:07:26.254Z,84.10
2019-01-23T11:08:30.598Z,92.20
2019-01-23T11:09:34.906Z,87.72
2019-01-23T11:10:39.262Z,91.25
2019-01-23T11:11:43.532Z,96.35
2019-01-23T11:12:47.899Z,94.70
2019-01-23T11:13:52.243Z,99.47
2019-01-23T11:14:56.518Z,89.58
2019-01-23T11:16:00.798Z,93.62
2019-01-23T11:17:05.238Z,91.37
2019-01-23T11:18:09.678Z,93.90
2019-01-23T11:19:14.025Z,96.40
2019-01-23T11:20:18.870Z,86.02
2019-01-23T11:21:23.303Z,88.30
2019-01-23T11:22:27.576Z,90.55
2019-01-23T11:23:31.930Z,95.30
2019-01-23T11:24:36.204Z,86.08
2019-01-23T11:25:40.499Z,95.83
2019-01-23T11:26:44.877Z,91.80
2019-01-23T11:27:49.308Z,86.42
2019-01-23T11:28:56.441Z,87.53
2019-01-23T11:30:02.170Z,88.25
2019-01-23T11:31:06.598Z,93.20
2019-01-23T11:32:10.870Z,86.87
2019-01-23T11:33:15.254Z,87.92
2019-01-23T11:34:19.569Z,86.70
2019-01-23T11:35:24.234Z,86.87
2019-01-23T11:36:28.494Z,83.65
2019-01-23T11:37:32.779Z,87.15
2019-01-23T11:38:37.121Z,89.00
2019-01-23T11:39:41.387Z,83.42
2019-01-23T11:40:45.745Z,87.97
2019-01-23T11:41:50.094Z,86.60
2019-01-23T11:42:54.437Z,84.47
2019-01-23T11:43:58.720Z,94.28
2019-01-23T11:45:03.158Z,82.95
2019-01-23T11:46:07.536Z,81.67
2019-01-23T11:47:11.862Z,87.82
2019-01-23T11:48:16.144Z,85.45
2019-01-23T11:49:20.402Z,84.03
2019-01-23T11:50:24.904Z,78.85
2019-01-23T11:51:29.227Z,81.57
2019-01-23T11:52:33.572Z,86.28
2019-01-23T11:53:37.904Z,83.62
2019-01-23T11:54:42.172Z,86.85
2019-01-23T11:55:47.486Z,88.05
2019-01-23T11:56:51.874Z,83.87
2019-01-23T11:57:56.221Z,92.90
2019-01-23T11:59:00.494Z,85.55
2019-01-23T12:00:07.009Z,88.55
2019-01-23T12:01:11.415Z,89.35
2019-01-23T12:02:15.766Z,85.95
2019-01-23T12:03:21.019Z,89.85
2019-01-23T12:04:25.476Z,94.47
2019-01-23T12:05:29.739Z,96.95
2019-01-23T12:06:34.081Z,91.35
2019-01-23T12:07:38.578Z,89.25
2019-01-23T12:08:42.926Z,93.70
2019-01-23T12:09:47.286Z,89.75
2019-01-23T12:10:51.618Z,90.67
2019-01-23T12:11:55.986Z,91.30
2019-01-23T12:13:00.264Z,94.40
2019-01-23T12:14:05.082Z,93.47
2019-01-23T12:15:10.598Z,89.20
2019-01-23T12:16:14.926Z,92.88
2019-01-23T12:17:19.210Z,88.05
2019-01-23T12:18:23.497Z,86.67
2019-01-23T12:19:27.850Z,84.72
2019-01-23T12:20:32.198Z,88.35
2019-01-23T12:21:36.506Z,88.12
2019-01-23T12:22:40.797Z,95.92
2019-01-23T12:23:45.139Z,85.75
2019-01-23T12:24:49.492Z,85.45
2019-01-23T12:25:53.750Z,86.63
2019-01-23T12:26:58.082Z,90.85
2019-01-23T12:28:02.370Z,84.15
2019-01-23T12:29:06.626Z,89.30
2019-01-23T12:30:17.858Z,83.75
2019-01-23T12:31:22.200Z,87.37
2019-01-23T12:32:26.486Z,84.25
2019-01-23T12:33:30.767Z,87.62
2019-01-23T12:34:35.022Z,81.60
2019-01-23T12:35:39.305Z,89.67
2019-01-23T12:36:44.348Z,91.02
2019-01-23T12:37:48.723Z,86.08
2019-01-23T12:38:52.990Z,94.22
2019-01-23T12:39:57.329Z,87.85
2019-01-23T12:41:01.609Z,94.40
2019-01-23T12:42:06.030Z,90.07
2019-01-23T12:43:10.307Z,86.63
2019-01-23T12:44:14.733Z,85.95
2019-01-23T12:45:21.243Z,85.05
2019-01-23T12:46:25.524Z,88.95
2019-01-23T12:47:29.805Z,90.57
2019-01-23T12:48:34.078Z,80.07
2019-01-23T12:49:38.426Z,85.85
2019-01-23T12:50:42.706Z,83.78
2019-01-23T12:51:47.051Z,82.65
2019-01-23T12:52:51.594Z,92.25
2019-01-23T12:53:55.939Z,80.72
2019-01-23T12:55:00.255Z,85.97
2019-01-23T12:56:04.840Z,91.28
2019-01-23T12:57:09.101Z,82.27
2019-01-23T12:58:13.394Z,85.67
2019-01-23T12:59:17.662Z,87.20
2019-01-23T13:00:26.954Z,87.10
2019-01-23T13:01:31.236Z,90.90
2019-01-23T13:02:35.534Z,91.47
2019-01-23T13:03:39.810Z,83.47
2019-01-23T13:04:44.166Z,85.72
2019-01-23T13:05:48.517Z,89.45
2019-01-23T13:06:52.862Z,84.75
2019-01-23T13:07:57.224Z,81.95
2019-01-23T13:09:01.487Z,90.20
2019-01-23T13:10:08.379Z,88.78
2019-01-23T13:11:12.820Z,94.52
2019-01-23T13:12:17.165Z,87.65
2019-01-23T13:13:21.519Z,85.42
2019-01-23T13:14:25.790Z,88.12
2019-01-23T13:15:30.218Z,83.05
2019-01-23T13:16:34.554Z,85.10
2019-01-23T13:17:38.827Z,85.80
2019-01-23T13:18:43.102Z,86.80
2019-01-23T13:19:47.365Z,84.07
2019-01-23T13:20:51.650Z,88.60
2019-01-23T13:21:55.991Z,93.17
2019-01-23T13:23:00.359Z,85.38
2019-01-23T13:24:04.690Z,91.28
2019-01-23T13:25:11.818Z,97.47
2019-01-23T13:26:16.158Z,93.03
2019-01-23T13:27:20.425Z,92.10
2019-01-23T13:28:24.715Z,86.92
2019-01-23T13:29:28.998Z,89.03
2019-01-23T13:30:33.345Z,88.15
2019-01-23T13:31:37.617Z,93.47
2019-01-23T13:32:41.887Z,87.70
2019-01-23T13:33:46.257Z,93.58
2019-01-23T13:34:50.919Z,95.15
2019-01-23T13:35:55.249Z,85.17
2019-01-23T13:36:59.614Z,97.45
2019-01-23T13:38:05.119Z,104.30
2019-01-23T13:39:13.558Z,97.35
2019-01-23T13:40:29.371Z,89.40
2019-01-23T13:41:33.689Z,86.72
2019-01-23T13:42:37.946Z,90.10
2019-01-23T13:43:42.221Z,90.00
2019-01-23T13:44:46.498Z,94.62
2019-01-23T13:45:50.765Z,92.85
2019-01-23T13:46:55.113Z,93.25